createdAt,value
2018-06-22T00:01:21.751Z,1.67
2018-06-22T00:03:49.591Z,1.43
2018-06-22T00:06:17.484Z,1.67
2018-06-22T00:08:45.401Z,1.93
2018-06-22T00:11:13.291Z,1.87
2018-06-22T00:13:41.110Z,1.40
2018-06-22T00:16:08.954Z,1.70
2018-06-22T00:18:36.718Z,1.83
2018-06-22T00:21:04.562Z,1.67
2018-06-22T00:23:32.436Z,2.43
2018-06-22T00:26:00.277Z,1.60
2018-06-22T00:28:28.229Z,2.00
2018-06-22T00:30:56.105Z,1.40
2018-06-22T00:33:23.991Z,1.23
2018-06-22T00:35:51.886Z,1.70
2018-06-22T00:38:19.757Z,1.50
2018-06-22T00:40:47.584Z,1.43
2018-06-22T00:43:15.467Z,1.93
2018-06-22T00:45:43.309Z,2.10
2018-06-22T00:48:11.189Z,1.90
2018-06-22T00:50:38.989Z,2.53
2018-06-22T00:53:24.161Z,2.43
2018-06-22T00:55:52.012Z,2.93
2018-06-22T00:58:19.781Z,2.63
2018-06-22T01:00:47.717Z,2.70
2018-06-22T01:03:15.626Z,3.07
2018-06-22T01:05:43.528Z,3.07
2018-06-22T01:08:11.477Z,3.33
2018-06-22T01:10:39.325Z,3.10
2018-06-22T01:13:07.377Z,2.77
2018-06-22T01:15:35.568Z,3.13
2018-06-22T01:18:03.449Z,4.00
2018-06-22T01:20:31.414Z,3.73
2018-06-22T01:22:59.297Z,4.10
2018-06-22T01:25:27.164Z,3.53
2018-06-22T01:27:55.000Z,3.70
2018-06-22T01:30:22.867Z,3.33
2018-06-22T01:32:50.677Z,3.80
2018-06-22T01:35:18.541Z,3.67
2018-06-22T01:37:46.370Z,3.47
2018-06-22T01:40:14.261Z,2.90
2018-06-22T01:42:42.140Z,3.07
2018-06-22T01:45:09.985Z,2.97
2018-06-22T01:47:37.905Z,2.50
2018-06-22T01:50:06.046Z,2.13
2018-06-22T01:52:33.886Z,2.47
2018-06-22T01:55:01.914Z,2.57
2018-06-22T01:57:29.865Z,2.27
2018-06-22T01:59:57.877Z,2.20
2018-06-22T02:02:29.100Z,2.33
2018-06-22T02:04:56.985Z,2.10
2018-06-22T02:07:24.890Z,1.67
2018-06-22T02:09:52.717Z,1.90
2018-06-22T02:12:20.649Z,1.90
2018-06-22T02:14:48.620Z,2.47
2018-06-22T02:17:16.531Z,1.87
2018-06-22T02:19:44.408Z,2.10
2018-06-22T02:22:12.238Z,2.10
2018-06-22T02:24:40.093Z,1.80
2018-06-22T02:27:08.053Z,1.77
2018-06-22T02:29:35.888Z,2.03
2018-06-22T02:32:03.853Z,2.10
2018-06-22T02:34:31.747Z,2.05
2018-06-22T02:36:59.643Z,2.47
2018-06-22T02:39:27.524Z,1.77
2018-06-22T02:41:55.448Z,2.27
2018-06-22T02:44:23.369Z,2.03
2018-06-22T02:46:51.264Z,1.70
2018-06-22T02:49:19.130Z,1.93
2018-06-22T02:51:46.973Z,2.50
2018-06-22T02:54:14.848Z,1.90
2018-06-22T02:56:42.743Z,1.97
2018-06-22T02:59:10.673Z,2.83
2018-06-22T03:01:38.527Z,2.30
2018-06-22T03:04:06.540Z,2.70
2018-06-22T03:06:34.468Z,1.90
2018-06-22T03:09:02.436Z,2.40
2018-06-22T03:11:30.369Z,3.53
2018-06-22T03:13:58.265Z,2.77
2018-06-22T03:16:26.145Z,2.13
2018-06-22T03:18:54.316Z,2.80
2018-06-22T03:21:22.169Z,3.30
2018-06-22T03:23:50.104Z,2.30
2018-06-22T03:26:17.981Z,2.20
2018-06-22T03:28:45.836Z,3.07
2018-06-22T03:31:14.091Z,2.77
2018-06-22T03:33:41.958Z,2.67
2018-06-22T03:36:09.801Z,2.60
2018-06-22T03:38:37.662Z,2.20
2018-06-22T03:41:05.513Z,3.17
2018-06-22T03:43:33.445Z,2.70
2018-06-22T03:46:01.333Z,2.53
2018-06-22T03:48:29.290Z,3.03
2018-06-22T03:50:57.089Z,2.23
2018-06-22T03:53:24.965Z,1.93
2018-06-22T03:55:52.842Z,2.10
2018-06-22T03:58:20.781Z,2.40
2018-06-22T04:00:48.692Z,1.83
2018-06-22T04:03:16.577Z,1.87
2018-06-22T04:05:44.569Z,2.63
2018-06-22T04:08:12.612Z,2.30
2018-06-22T04:10:40.930Z,2.33
2018-06-22T04:13:08.838Z,2.20
2018-06-22T04:15:36.796Z,2.57
2018-06-22T04:18:04.993Z,2.67
2018-06-22T04:20:32.842Z,3.07
2018-06-22T04:23:00.712Z,2.53
2018-06-22T04:25:28.573Z,2.63
2018-06-22T04:27:56.474Z,1.90
2018-06-22T04:30:24.433Z,2.30
2018-06-22T04:32:52.225Z,2.03
2018-06-22T04:35:20.057Z,2.87
2018-06-22T04:37:48.018Z,2.50
2018-06-22T04:40:15.973Z,2.13
2018-06-22T04:42:43.833Z,1.83
2018-06-22T04:45:11.742Z,2.10
2018-06-22T04:47:39.613Z,2.83
2018-06-22T04:50:07.458Z,2.60
2018-06-22T04:52:35.362Z,2.60
2018-06-22T04:55:03.295Z,3.03
2018-06-22T04:57:31.164Z,2.50
2018-06-22T04:59:59.019Z,2.77
2018-06-22T05:02:26.918Z,2.13
2018-06-22T05:04:55.691Z,2.60
2018-06-22T05:07:24.484Z,2.57
2018-06-22T05:09:52.393Z,2.20
2018-06-22T05:12:20.262Z,2.43
2018-06-22T05:14:48.822Z,2.17
2018-06-22T05:17:17.209Z,2.27
2018-06-22T05:19:45.101Z,2.67
2018-06-22T05:22:13.028Z,2.67
2018-06-22T05:24:40.964Z,2.27
2018-06-22T05:27:08.881Z,2.07
2018-06-22T05:29:36.713Z,2.43
2018-06-22T05:32:08.351Z,1.70
2018-06-22T05:34:36.342Z,2.40
2018-06-22T05:37:04.698Z,2.37
2018-06-22T05:39:32.602Z,2.27
2018-06-22T05:42:00.462Z,2.20
2018-06-22T05:44:28.278Z,2.27
2018-06-22T05:46:56.340Z,2.40
2018-06-22T05:49:24.240Z,2.20
2018-06-22T05:51:52.141Z,2.20
2018-06-22T05:54:20.078Z,2.10
2018-06-22T05:56:48.098Z,1.93
2018-06-22T05:59:15.921Z,2.10
2018-06-22T06:01:43.740Z,2.40
2018-06-22T06:04:11.675Z,2.17
2018-06-22T06:06:39.483Z,1.90
2018-06-22T06:09:08.401Z,2.13
2018-06-22T06:11:36.421Z,2.37
2018-06-22T06:14:04.398Z,2.37
2018-06-22T06:16:32.296Z,2.27
2018-06-22T06:19:00.207Z,2.10
2018-06-22T06:21:28.126Z,2.27
2018-06-22T06:23:56.053Z,2.13
2018-06-22T06:26:24.249Z,2.20
2018-06-22T06:28:52.140Z,2.47
2018-06-22T06:31:19.999Z,2.00
2018-06-22T06:33:47.859Z,2.10
2018-06-22T06:36:15.791Z,2.27
2018-06-22T06:38:43.700Z,2.10
2018-06-22T06:41:11.570Z,2.10
2018-06-22T06:43:39.405Z,2.77
2018-06-22T06:46:07.233Z,2.53
2018-06-22T06:48:35.080Z,2.40
2018-06-22T06:56:57.811Z,1.97
2018-06-22T06:59:25.748Z,1.60
2018-06-22T07:01:53.889Z,2.20
2018-06-22T07:04:21.857Z,2.20
2018-06-22T07:06:49.792Z,2.37
2018-06-22T07:09:17.665Z,2.07
2018-06-22T07:11:45.577Z,2.00
2018-06-22T07:14:13.586Z,2.40
2018-06-22T07:16:41.449Z,2.30
2018-06-22T07:19:09.285Z,2.27
2018-06-22T07:21:37.237Z,1.90
2018-06-22T07:24:05.161Z,2.30
2018-06-22T07:26:33.016Z,2.37
2018-06-22T07:29:00.888Z,2.30
2018-06-22T07:31:28.797Z,2.27
2018-06-22T07:33:56.681Z,2.20
2018-06-22T07:36:24.567Z,1.90
2018-06-22T07:38:52.443Z,2.03
2018-06-22T07:41:20.333Z,2.27
2018-06-22T07:43:48.178Z,2.23
2018-06-22T07:46:16.149Z,2.20
2018-06-22T07:48:44.119Z,2.30
2018-06-22T07:51:11.953Z,1.97
2018-06-22T07:53:39.837Z,2.13
2018-06-22T07:56:07.795Z,1.90
2018-06-22T07:58:35.663Z,1.83
2018-06-22T08:01:03.525Z,2.90
2018-06-22T08:03:31.425Z,2.20
2018-06-22T08:05:59.285Z,2.20
2018-06-22T08:08:27.117Z,1.97
2018-06-22T08:10:55.089Z,2.13
2018-06-22T08:13:22.961Z,2.00
2018-06-22T08:15:50.829Z,2.23
2018-06-22T08:18:18.677Z,2.37
2018-06-22T08:20:46.585Z,2.07
2018-06-22T08:23:14.478Z,1.93
2018-06-22T08:25:42.342Z,2.53
2018-06-22T08:28:10.205Z,2.37
2018-06-22T08:30:38.058Z,1.73
2018-06-22T08:33:05.962Z,1.87
2018-06-22T08:35:33.896Z,1.70
2018-06-22T08:38:01.872Z,2.00
2018-06-22T08:40:29.806Z,1.53
2018-06-22T08:42:58.597Z,1.93
2018-06-22T08:45:26.569Z,2.47
2018-06-22T08:47:54.584Z,2.43
2018-06-22T08:50:22.641Z,1.73
2018-06-22T08:52:50.477Z,1.87
2018-06-22T08:55:18.382Z,2.10
2018-06-22T08:57:46.245Z,2.03
2018-06-22T09:00:14.177Z,2.50
2018-06-22T09:02:42.025Z,1.80
2018-06-22T09:05:09.961Z,1.70
2018-06-22T09:07:37.826Z,1.67
2018-06-22T09:10:05.678Z,2.13
2018-06-22T09:12:33.592Z,1.83
2018-06-22T09:15:01.527Z,1.80
2018-06-22T09:17:29.755Z,1.70
2018-06-22T09:19:58.218Z,2.10
2018-06-22T09:22:26.429Z,1.77
2018-06-22T09:24:54.492Z,2.03
2018-06-22T09:27:23.105Z,1.70
2018-06-22T09:29:51.064Z,2.17
2018-06-22T09:32:18.977Z,2.07
2018-06-22T09:34:46.849Z,1.73
2018-06-22T09:37:14.770Z,1.87
2018-06-22T09:39:42.632Z,2.63
2018-06-22T09:42:10.533Z,1.80
2018-06-22T09:44:39.577Z,2.33
2018-06-22T09:47:08.026Z,2.80
2018-06-22T09:49:35.957Z,1.93
2018-06-22T09:52:03.829Z,2.47
2018-06-22T09:54:31.710Z,1.67
2018-06-22T09:56:59.626Z,1.67
2018-06-22T09:59:27.543Z,1.90
2018-06-22T10:01:55.606Z,2.10
2018-06-22T10:04:24.085Z,2.30
2018-06-22T10:06:52.389Z,2.27
2018-06-22T10:09:20.319Z,1.90
2018-06-22T10:11:48.310Z,2.67
2018-06-22T10:14:16.201Z,1.73
2018-06-22T10:16:44.075Z,2.13
2018-06-22T10:19:11.922Z,1.90
2018-06-22T10:21:39.929Z,2.40
2018-06-22T10:24:07.864Z,2.00
2018-06-22T10:26:35.723Z,2.10
2018-06-22T10:29:03.609Z,1.90
2018-06-22T10:31:31.539Z,1.93
2018-06-22T10:33:59.415Z,2.07
2018-06-22T10:36:27.229Z,1.80
2018-06-22T10:38:55.166Z,1.87
2018-06-22T10:41:23.090Z,1.73
2018-06-22T10:43:51.069Z,2.20
2018-06-22T10:46:19.010Z,2.00
2018-06-22T10:48:47.369Z,2.00
2018-06-22T10:51:15.273Z,2.47
2018-06-22T10:53:43.207Z,2.10
2018-06-22T10:56:11.257Z,1.97
2018-06-22T10:58:39.157Z,2.67
2018-06-22T11:01:07.049Z,2.23
2018-06-22T11:03:35.013Z,1.97
2018-06-22T11:06:02.957Z,2.00
2018-06-22T11:08:30.840Z,2.17
2018-06-22T11:10:58.774Z,2.40
2018-06-22T11:13:27.526Z,1.80
2018-06-22T11:15:55.404Z,2.20
2018-06-22T11:18:23.372Z,1.87
2018-06-22T11:20:51.261Z,1.73
2018-06-22T11:23:19.125Z,1.87
2018-06-22T11:25:47.021Z,1.90
2018-06-22T11:28:14.906Z,2.23
2018-06-22T11:30:42.855Z,1.53
2018-06-22T11:33:10.737Z,1.60
2018-06-22T11:35:38.691Z,1.87
2018-06-22T11:38:06.536Z,1.70
2018-06-22T11:40:34.422Z,1.83
2018-06-22T11:43:02.345Z,2.13
2018-06-22T11:45:30.208Z,2.20
2018-06-22T11:47:58.122Z,1.50
2018-06-22T11:50:26.019Z,2.23
2018-06-22T11:52:53.893Z,2.80
2018-06-22T11:55:21.852Z,2.00
2018-06-22T11:57:49.756Z,1.97
2018-06-22T12:00:17.636Z,1.60
2018-06-22T12:02:45.487Z,1.70
2018-06-22T12:05:13.350Z,2.13
2018-06-22T12:07:41.257Z,1.90
2018-06-22T12:10:09.116Z,1.87
2018-06-22T12:12:37.090Z,1.63
2018-06-22T12:15:05.145Z,1.70
2018-06-22T12:17:32.973Z,1.60
2018-06-22T12:20:00.889Z,1.80
2018-06-22T12:22:28.706Z,1.43
2018-06-22T12:24:56.577Z,2.07
2018-06-22T12:27:24.469Z,1.80
2018-06-22T12:29:52.318Z,1.63
2018-06-22T12:32:20.152Z,1.80
2018-06-22T12:34:47.994Z,1.33
2018-06-22T12:37:15.521Z,1.37
2018-06-22T12:39:43.357Z,1.53
2018-06-22T12:42:11.260Z,1.70
2018-06-22T12:44:38.568Z,1.33
2018-06-22T12:47:06.523Z,1.87
2018-06-22T12:49:34.409Z,1.87
2018-06-22T12:52:02.385Z,1.30
2018-06-22T12:54:30.285Z,1.33
2018-06-22T12:56:58.177Z,1.90
2018-06-22T12:59:26.038Z,2.10
2018-06-22T13:01:54.095Z,2.00
2018-06-22T13:04:21.925Z,1.50
2018-06-22T13:06:49.826Z,1.77
2018-06-22T13:09:17.709Z,2.30
2018-06-22T13:11:45.505Z,2.20
2018-06-22T13:14:13.401Z,1.70
2018-06-22T13:16:41.298Z,2.07
2018-06-22T13:19:09.189Z,1.93
2018-06-22T13:21:51.822Z,2.03
2018-06-22T13:24:20.955Z,1.90
2018-06-22T13:26:48.989Z,1.57
2018-06-22T13:29:16.913Z,1.50
2018-06-22T13:31:45.089Z,1.73
2018-06-22T13:34:14.256Z,1.50
2018-06-22T13:36:42.307Z,1.40
2018-06-22T13:39:13.255Z,1.50
2018-06-22T13:41:41.582Z,2.63
2018-06-22T13:44:09.789Z,1.53
2018-06-22T13:46:38.842Z,1.50
2018-06-22T13:49:07.551Z,2.10
2018-06-22T13:51:36.174Z,1.60
2018-06-22T13:54:04.274Z,2.17
2018-06-22T13:56:33.001Z,2.13
2018-06-22T13:59:01.277Z,2.63
2018-06-22T14:01:29.573Z,2.30
2018-06-22T14:04:03.211Z,2.10
2018-06-22T14:06:36.841Z,2.87
2018-06-22T14:09:07.180Z,2.13
2018-06-22T14:11:35.060Z,2.93
2018-06-22T14:14:03.359Z,2.57
2018-06-22T14:16:31.311Z,2.30
2018-06-22T14:18:59.235Z,2.37
2018-06-22T14:21:27.215Z,2.60
2018-06-22T14:23:55.099Z,2.70
2018-06-22T14:26:23.062Z,1.87
2018-06-22T14:28:50.895Z,2.30
2018-06-22T14:31:18.827Z,2.00
2018-06-22T14:33:46.770Z,2.57
2018-06-22T14:36:14.638Z,2.10
2018-06-22T14:38:42.537Z,2.33
2018-06-22T14:41:10.553Z,1.67
2018-06-22T14:43:38.488Z,1.83
2018-06-22T14:46:06.504Z,2.00
2018-06-22T14:48:35.591Z,1.97
2018-06-22T14:51:03.616Z,1.80
2018-06-22T14:53:37.327Z,2.27
2018-06-22T14:56:12.140Z,2.13
2018-06-22T14:58:45.874Z,2.30
2018-06-22T15:01:19.448Z,2.00
2018-06-22T15:03:53.973Z,1.73
2018-06-22T15:06:27.809Z,2.17
2018-06-22T15:08:55.728Z,2.27
2018-06-22T15:11:23.665Z,2.17
2018-06-22T15:13:51.594Z,2.53
2018-06-22T15:16:19.554Z,2.50
2018-06-22T15:18:47.813Z,2.37
2018-06-22T15:21:15.698Z,2.53
2018-06-22T15:23:43.666Z,2.60
2018-06-22T15:26:11.689Z,2.30
2018-06-22T15:28:39.640Z,2.23
2018-06-22T15:31:07.601Z,2.20
2018-06-22T15:33:41.226Z,2.40
2018-06-22T15:36:14.889Z,2.07
2018-06-22T15:38:48.723Z,2.20
2018-06-22T15:41:22.247Z,2.37
2018-06-22T15:43:56.075Z,1.60
2018-06-22T15:46:29.633Z,2.10
2018-06-22T15:49:03.208Z,2.30
2018-06-22T15:51:37.021Z,2.07
2018-06-22T15:54:10.883Z,1.87
2018-06-22T15:56:38.770Z,1.63
2018-06-22T15:59:06.721Z,1.90
2018-06-22T16:01:34.641Z,1.30
2018-06-22T16:04:07.092Z,1.77
2018-06-22T16:06:35.051Z,1.63
2018-06-22T16:09:04.686Z,1.50
2018-06-22T16:11:32.610Z,1.27
2018-06-22T16:14:06.203Z,1.40
2018-06-22T16:16:39.862Z,1.70
2018-06-22T16:19:15.811Z,1.17
2018-06-22T16:21:49.530Z,1.57
2018-06-22T16:24:23.070Z,1.57
2018-06-22T16:26:56.617Z,1.63
2018-06-22T16:29:24.692Z,1.67
2018-06-22T16:31:52.739Z,1.60
2018-06-22T16:34:20.669Z,1.40
2018-06-22T16:36:48.642Z,2.80
2018-06-22T16:39:16.596Z,1.93
2018-06-22T16:41:44.614Z,1.47
2018-06-22T16:44:12.484Z,1.37
2018-06-22T16:46:40.406Z,1.30
2018-06-22T16:49:08.402Z,1.63
2018-06-22T16:51:36.334Z,1.63
2018-06-22T16:54:04.465Z,1.50
2018-06-22T16:56:32.393Z,1.27
2018-06-22T16:59:01.417Z,1.50
2018-06-22T17:01:29.648Z,2.40
2018-06-22T17:03:57.548Z,1.50
2018-06-22T17:06:25.595Z,1.50
2018-06-22T17:08:59.259Z,1.33
2018-06-22T17:11:32.724Z,1.33
2018-06-22T17:14:06.551Z,1.30
2018-06-22T17:16:40.242Z,1.40
2018-06-22T17:19:08.307Z,1.43
2018-06-22T17:21:36.190Z,1.50
2018-06-22T17:24:04.057Z,1.50
2018-06-22T17:26:31.948Z,1.30
2018-06-22T17:28:59.869Z,1.60
2018-06-22T17:31:27.773Z,1.40
2018-06-22T17:33:56.205Z,1.60
2018-06-22T17:36:24.105Z,1.40
2018-06-22T17:38:52.024Z,1.40
2018-06-22T17:41:20.008Z,1.33
2018-06-22T17:43:47.887Z,1.70
2018-06-22T17:46:15.848Z,1.33
2018-06-22T17:48:43.759Z,2.33
2018-06-22T17:51:11.680Z,2.17
2018-06-22T17:53:39.632Z,1.90
2018-06-22T17:56:07.540Z,1.73
2018-06-22T17:58:35.551Z,2.13
2018-06-22T18:01:09.229Z,2.07
2018-06-22T18:03:42.749Z,1.97
2018-06-22T18:06:16.405Z,2.40
2018-06-22T18:08:46.772Z,2.83
2018-06-22T18:11:20.485Z,2.57
2018-06-22T18:13:48.337Z,2.20
2018-06-22T18:16:16.315Z,2.67
2018-06-22T18:18:44.214Z,2.33
2018-06-22T18:21:12.081Z,2.20
2018-06-22T18:23:40.076Z,1.77
2018-06-22T18:26:08.038Z,1.73
2018-06-22T18:28:35.957Z,1.60
2018-06-22T18:31:03.882Z,1.97
2018-06-22T18:33:31.842Z,2.17
2018-06-22T18:35:59.797Z,3.40
2018-06-22T18:38:27.717Z,2.63
2018-06-22T18:40:55.657Z,2.13
2018-06-22T18:43:29.377Z,2.20
2018-06-22T18:45:57.348Z,1.83
2018-06-22T18:48:25.196Z,1.93
2018-06-22T18:50:53.092Z,2.00
2018-06-22T18:53:26.783Z,2.50
2018-06-22T18:56:00.343Z,1.87
2018-06-22T18:58:33.958Z,1.67
2018-06-22T19:02:11.105Z,2.47
2018-06-22T19:04:39.007Z,1.60
2018-06-22T19:07:06.884Z,2.10
2018-06-22T19:09:34.797Z,1.70
2018-06-22T19:12:02.804Z,1.90
2018-06-22T19:14:30.714Z,1.93
2018-06-22T19:16:58.568Z,1.80
2018-06-22T19:19:26.411Z,2.23
2018-06-22T19:21:54.313Z,2.17
2018-06-22T19:24:22.160Z,2.37
2018-06-22T19:26:50.186Z,2.30
2018-06-22T19:29:18.046Z,1.77
2018-06-22T19:31:45.946Z,1.93
2018-06-22T19:34:13.797Z,2.20
2018-06-22T19:36:41.710Z,1.83
2018-06-22T19:39:10.506Z,2.13
2018-06-22T19:41:38.561Z,2.47
2018-06-22T19:44:12.229Z,2.30
2018-06-22T19:46:45.721Z,1.70
2018-06-22T19:49:19.224Z,1.83
2018-06-22T19:51:52.812Z,1.83
2018-06-22T19:54:20.806Z,2.13
2018-06-22T19:56:48.829Z,2.47
2018-06-22T19:59:16.821Z,2.27
2018-06-22T20:01:44.664Z,1.97
2018-06-22T20:04:16.401Z,2.07
2018-06-22T20:06:44.281Z,1.80
2018-06-22T20:09:12.462Z,1.47
2018-06-22T20:11:40.336Z,1.70
2018-06-22T20:14:08.221Z,2.73
2018-06-22T20:16:36.102Z,2.07
2018-06-22T20:19:06.447Z,2.30
2018-06-22T20:21:37.258Z,2.33
2018-06-22T20:24:06.201Z,2.17
2018-06-22T20:26:34.129Z,1.87
2018-06-22T20:29:02.936Z,2.20
2018-06-22T20:31:37.468Z,2.20
2018-06-22T20:34:11.072Z,1.90
2018-06-22T20:36:44.777Z,1.80
2018-06-22T20:39:18.560Z,2.50
2018-06-22T20:41:51.928Z,2.10
2018-06-22T20:44:25.677Z,1.70
2018-06-22T20:47:00.623Z,2.03
2018-06-22T20:49:39.330Z,2.12
2018-06-22T20:52:08.041Z,1.57
2018-06-22T20:54:36.032Z,2.30
2018-06-22T20:57:04.009Z,2.50
2018-06-22T20:59:32.018Z,2.10
2018-06-22T21:01:59.955Z,1.83
2018-06-22T21:04:27.902Z,2.00
2018-06-22T21:06:55.761Z,2.50
2018-06-22T21:09:23.797Z,2.63
2018-06-22T21:11:51.673Z,2.70
2018-06-22T21:14:19.693Z,2.70
2018-06-22T21:16:47.699Z,2.77
2018-06-22T21:19:15.656Z,2.53
2018-06-22T21:21:49.205Z,2.60
2018-06-22T21:24:17.793Z,2.23
2018-06-22T21:26:49.547Z,2.23
2018-06-22T21:29:24.258Z,2.53
2018-06-22T21:32:03.125Z,1.80
2018-06-22T21:34:33.770Z,2.23
2018-06-22T21:37:08.280Z,2.20
2018-06-22T21:39:40.666Z,2.00
2018-06-22T21:42:09.395Z,2.00
2018-06-22T21:44:48.891Z,1.77
2018-06-22T21:47:16.941Z,2.47
2018-06-22T21:49:44.777Z,2.40
2018-06-22T21:52:15.756Z,3.00
2018-06-22T21:54:44.578Z,2.63
2018-06-22T21:57:12.559Z,2.50
2018-06-22T21:59:40.492Z,2.27
2018-06-22T22:02:08.441Z,2.53
2018-06-22T22:04:36.321Z,3.17
2018-06-22T22:07:04.239Z,3.23
2018-06-22T22:09:37.961Z,2.70
2018-06-22T22:12:07.112Z,2.73
2018-06-22T22:14:35.027Z,2.43
2018-06-22T22:17:02.964Z,2.93
2018-06-22T22:19:30.812Z,3.10
2018-06-22T22:21:58.842Z,2.63
2018-06-22T22:24:27.343Z,2.27
2018-06-22T22:26:55.278Z,2.43
2018-06-22T22:29:23.178Z,2.50
2018-06-22T22:31:50.975Z,2.70
2018-06-22T22:34:18.877Z,3.63
2018-06-22T22:36:46.727Z,2.73
2018-06-22T22:39:14.651Z,3.60
2018-06-22T22:41:42.553Z,3.10
2018-06-22T22:44:10.491Z,3.10
2018-06-22T22:46:38.810Z,2.77
2018-06-22T22:49:06.897Z,2.90
2018-06-22T22:51:34.924Z,2.30
2018-06-22T22:54:04.945Z,3.10
2018-06-22T22:56:32.801Z,2.53
2018-06-22T22:59:05.965Z,2.27
2018-06-22T23:01:39.918Z,2.90
2018-06-22T23:04:09.811Z,3.03
2018-06-22T23:06:44.750Z,2.77
2018-06-22T23:09:13.110Z,3.03
2018-06-22T23:11:41.061Z,2.37
2018-06-22T23:14:08.982Z,2.30
2018-06-22T23:16:36.945Z,2.60
2018-06-22T23:19:04.893Z,2.80
2018-06-22T23:21:32.738Z,3.43
2018-06-22T23:24:00.666Z,2.40
2018-06-22T23:26:28.567Z,2.70
2018-06-22T23:28:56.496Z,2.73
2018-06-22T23:31:24.401Z,2.63
2018-06-22T23:33:52.305Z,2.43
2018-06-22T23:36:20.186Z,3.03
2018-06-22T23:38:48.066Z,2.80
2018-06-22T23:41:15.988Z,3.23
2018-06-22T23:43:43.845Z,2.73
2018-06-22T23:46:11.835Z,2.83
2018-06-22T23:48:39.828Z,3.33
2018-06-22T23:51:07.852Z,3.00
2018-06-22T23:53:35.830Z,2.67
2018-06-22T23:56:03.758Z,2.30
2018-06-22T23:58:31.694Z,1.87
